createdAt,value
2023-01-29T00:01:36.641Z,102278.81
2023-01-29T00:04:05.107Z,102277.03
2023-01-29T00:06:33.194Z,102269.00
2023-01-29T00:09:01.319Z,102269.91
2023-01-29T00:11:31.935Z,102270.75
2023-01-29T00:14:00.097Z,102276.97
2023-01-29T00:16:28.348Z,102280.47
2023-01-29T00:18:56.467Z,102279.59
2023-01-29T00:21:24.950Z,102281.31
2023-01-29T00:23:53.386Z,102280.31
2023-01-29T00:26:21.571Z,102273.13
2023-01-29T00:28:51.103Z,102280.22
2023-01-29T00:31:21.899Z,102267.69
2023-01-29T00:33:50.228Z,102262.34
2023-01-29T00:36:21.829Z,102278.41
2023-01-29T00:38:59.485Z,102268.59
2023-01-29T00:41:45.976Z,102270.41
2023-01-29T00:44:33.092Z,102259.72
2023-01-29T00:47:01.318Z,102254.34
2023-01-29T00:49:30.517Z,102249.88
2023-01-29T00:52:16.179Z,102246.28
2023-01-29T00:54:44.256Z,102247.19
2023-01-29T00:57:12.351Z,102246.22
2023-01-29T00:59:41.806Z,102245.44
2023-01-29T01:02:27.442Z,102251.72
2023-01-29T01:04:55.686Z,102259.72
2023-01-29T01:07:23.824Z,102255.31
2023-01-29T01:10:09.326Z,102247.28
2023-01-29T01:12:37.421Z,102264.22
2023-01-29T01:15:07.702Z,102242.81
2023-01-29T01:17:36.073Z,102251.72
2023-01-29T01:20:04.229Z,102246.38
2023-01-29T01:22:32.330Z,102250.72
2023-01-29T01:25:00.411Z,102243.59
2023-01-29T01:27:28.551Z,102233.75
2023-01-29T01:29:56.626Z,102233.75
2023-01-29T01:32:26.140Z,102231.13
2023-01-29T01:34:54.231Z,102220.41
2023-01-29T01:37:22.355Z,102223.06
2023-01-29T01:39:50.603Z,102216.78
2023-01-29T01:42:18.684Z,102216.75
2023-01-29T01:44:52.948Z,102199.75
2023-01-29T01:47:23.348Z,102207.69
2023-01-29T01:49:53.536Z,102214.78
2023-01-29T01:52:22.509Z,102212.03
2023-01-29T01:54:51.803Z,102225.44
2023-01-29T01:57:25.018Z,102220.06
2023-01-29T01:59:57.849Z,102221.78
2023-01-29T02:02:44.449Z,102212.84
2023-01-29T02:05:32.845Z,102203.03
2023-01-29T02:08:18.653Z,102206.59
2023-01-29T02:10:48.222Z,102203.88
2023-01-29T02:13:18.589Z,102203.84
2023-01-29T02:15:48.759Z,102192.16
2023-01-29T02:18:17.864Z,102179.63
2023-01-29T02:20:57.917Z,102185.91
2023-01-29T02:24:01.512Z,102169.81
2023-01-29T02:26:52.385Z,102170.69
2023-01-29T02:29:33.364Z,102172.53
2023-01-29T02:32:18.035Z,102164.53
2023-01-29T02:35:11.846Z,102158.34
2023-01-29T02:37:44.099Z,102148.53
2023-01-29T02:40:20.670Z,102137.00
2023-01-29T02:42:54.172Z,102138.75
2023-01-29T02:45:29.518Z,102131.66
2023-01-29T02:47:59.749Z,102122.78
2023-01-29T02:50:33.093Z,102131.75
2023-01-29T02:53:05.064Z,102135.44
2023-01-29T02:55:37.790Z,102126.50
2023-01-29T02:58:10.817Z,102122.00
2023-01-29T03:00:42.431Z,102114.81
2023-01-29T03:03:14.568Z,102104.09
2023-01-29T03:05:53.354Z,102117.47
2023-01-29T03:08:37.335Z,102113.94
2023-01-29T03:11:07.675Z,102108.59
2023-01-29T03:13:41.368Z,102112.19
2023-01-29T03:16:15.369Z,102114.88
2023-01-29T03:18:48.749Z,102109.50
2023-01-29T03:21:37.659Z,102101.47
2023-01-29T03:24:24.933Z,102108.66
2023-01-29T03:27:11.497Z,102105.16
2023-01-29T03:29:59.196Z,102115.03
2023-01-29T03:32:29.991Z,102117.72
2023-01-29T03:35:04.039Z,102118.72
2023-01-29T03:37:35.599Z,102123.16
2023-01-29T03:40:04.855Z,102115.13
2023-01-29T03:42:40.015Z,102117.81
2023-01-29T03:45:13.996Z,102112.47
2023-01-29T03:47:47.134Z,102114.28
2023-01-29T03:50:29.607Z,102116.94
2023-01-29T03:53:04.897Z,102129.34
2023-01-29T03:55:38.710Z,102115.94
2023-01-29T03:58:11.812Z,102119.50
2023-01-29T04:00:43.129Z,102120.41
2023-01-29T04:03:18.408Z,102124.88
2023-01-29T04:05:50.549Z,102140.97
2023-01-29T04:08:23.842Z,102139.13
2023-01-29T04:10:53.131Z,102141.78
2023-01-29T04:13:21.406Z,102131.03
2023-01-29T04:15:54.446Z,102136.34
2023-01-29T04:18:25.019Z,102130.16
2023-01-29T04:20:53.417Z,102119.44
2023-01-29T04:23:22.939Z,102131.94
2023-01-29T04:25:59.762Z,102118.56
2023-01-29T04:28:35.823Z,102123.94
2023-01-29T04:31:07.868Z,102117.69
2023-01-29T04:33:45.668Z,102108.75
2023-01-29T04:36:29.782Z,102100.69
2023-01-29T04:39:05.477Z,102081.94
2023-01-29T04:41:37.465Z,102089.91
2023-01-29T04:44:09.677Z,102079.16
2023-01-29T04:46:48.354Z,102079.13
2023-01-29T04:49:25.927Z,102072.81
2023-01-29T04:52:00.696Z,102089.78
2023-01-29T04:54:35.807Z,102083.56
2023-01-29T04:57:10.813Z,102086.22
2023-01-29T04:59:43.389Z,102070.25
2023-01-29T05:02:12.935Z,102081.88
2023-01-29T05:04:44.954Z,102072.13
2023-01-29T05:07:15.546Z,102074.84
2023-01-29T05:09:44.855Z,102075.75
2023-01-29T05:12:14.261Z,102064.13
2023-01-29T05:14:45.329Z,102057.78
2023-01-29T05:17:16.811Z,102067.59
2023-01-29T05:19:46.853Z,102063.97
2023-01-29T05:22:17.796Z,102072.84
2023-01-29T05:24:46.591Z,102074.63
2023-01-29T05:27:35.875Z,102078.13
2023-01-29T05:30:04.231Z,102070.94
2023-01-29T05:32:32.325Z,102054.00
2023-01-29T05:35:01.828Z,102048.59
2023-01-29T05:37:29.935Z,102036.09
2023-01-29T05:39:58.030Z,102030.69
2023-01-29T05:42:26.133Z,102041.38
2023-01-29T05:44:54.483Z,102041.38
2023-01-29T05:47:23.006Z,102035.97
2023-01-29T05:49:51.082Z,102034.97
2023-01-29T05:52:20.565Z,102026.97
2023-01-29T05:54:49.056Z,102021.63
2023-01-29T05:57:17.137Z,102021.63
2023-01-29T05:59:45.222Z,102019.88
2023-01-29T06:02:13.331Z,102018.06
2023-01-29T06:04:41.448Z,102017.22
2023-01-29T06:07:09.616Z,102000.28
2023-01-29T06:09:39.095Z,101995.03
2023-01-29T06:12:07.951Z,101988.78
2023-01-29T06:14:36.054Z,101995.91
2023-01-29T06:17:04.907Z,101991.47
2023-01-29T06:19:33.009Z,101987.00
2023-01-29T06:22:01.079Z,101997.69
2023-01-29T06:24:29.241Z,101995.03
2023-01-29T06:26:58.729Z,101993.22
2023-01-29T06:29:26.840Z,101982.47
2023-01-29T06:31:55.179Z,101977.16
2023-01-29T06:34:23.363Z,101969.19
2023-01-29T06:36:51.424Z,101976.38
2023-01-29T06:39:19.536Z,101979.94
2023-01-29T06:41:47.648Z,101980.84
2023-01-29T06:44:17.126Z,101979.88
2023-01-29T06:46:45.195Z,101970.03
2023-01-29T06:49:13.338Z,101970.84
2023-01-29T06:51:41.408Z,101963.69
2023-01-29T06:54:10.506Z,101961.00
2023-01-29T06:56:38.667Z,101966.31
2023-01-29T06:59:07.022Z,101964.56
2023-01-29T07:01:41.095Z,101954.78
2023-01-29T07:04:09.318Z,101950.31
2023-01-29T07:06:37.560Z,101946.81
2023-01-29T07:09:06.052Z,101945.06
2023-01-29T07:11:37.724Z,101948.69
2023-01-29T07:14:06.129Z,101956.72
2023-01-29T07:16:35.854Z,101946.06
2023-01-29T07:19:03.963Z,101954.09
2023-01-29T07:21:32.056Z,101955.00
2023-01-29T07:24:00.189Z,101960.41
2023-01-29T07:26:28.448Z,101944.38
2023-01-29T07:28:56.511Z,101946.16
2023-01-29T07:31:24.696Z,101956.81
2023-01-29T07:33:54.349Z,101952.44
2023-01-29T07:36:24.073Z,101950.69
2023-01-29T07:38:52.422Z,101951.63
2023-01-29T07:41:20.654Z,101948.13
2023-01-29T07:43:48.811Z,101940.22
2023-01-29T07:46:17.011Z,101946.50
2023-01-29T07:48:45.276Z,101941.25
2023-01-29T07:51:15.034Z,101945.88
2023-01-29T07:53:44.369Z,101934.47
2023-01-29T07:56:12.447Z,101930.13
2023-01-29T07:58:40.527Z,101941.75
2023-01-29T08:01:09.341Z,101950.75
2023-01-29T08:03:37.755Z,101955.25
2023-01-29T08:06:06.345Z,101942.81
2023-01-29T08:08:35.832Z,101944.66
2023-01-29T08:11:05.553Z,101954.47
2023-01-29T08:13:34.312Z,101952.72
2023-01-29T08:16:02.784Z,101959.06
2023-01-29T08:18:31.545Z,101949.19
2023-01-29T08:21:02.879Z,101947.38
2023-01-29T08:23:31.425Z,101948.19
2023-01-29T08:26:00.952Z,101949.00
2023-01-29T08:28:29.064Z,101942.69
2023-01-29T08:30:57.387Z,101939.97
2023-01-29T08:33:38.676Z,101938.16
2023-01-29T08:36:08.301Z,101947.97
2023-01-29T08:38:36.479Z,101944.31
2023-01-29T08:41:06.587Z,101936.25
2023-01-29T08:43:36.865Z,101939.78
2023-01-29T08:46:05.494Z,101943.38
2023-01-29T08:48:33.902Z,101933.53
2023-01-29T08:51:03.038Z,101927.25
2023-01-29T08:53:31.270Z,101933.44
2023-01-29T08:55:59.453Z,101921.81
2023-01-29T08:58:28.920Z,101915.50
2023-01-29T09:00:57.062Z,101909.22
2023-01-29T09:03:25.133Z,101905.63
2023-01-29T09:05:53.216Z,101910.97
2023-01-29T09:08:21.282Z,101903.88
2023-01-29T09:10:49.394Z,101902.06
2023-01-29T09:13:17.488Z,101894.09
2023-01-29T09:15:46.946Z,101884.31
2023-01-29T09:18:15.022Z,101887.91
2023-01-29T09:20:43.107Z,101883.47
2023-01-29T09:23:12.033Z,101885.31
2023-01-29T09:25:40.126Z,101881.72
2023-01-29T09:28:08.230Z,101875.59
2023-01-29T09:30:38.177Z,101869.34
2023-01-29T09:33:08.467Z,101871.09
2023-01-29T09:35:36.572Z,101867.56
2023-01-29T09:38:04.748Z,101868.41
2023-01-29T09:40:36.862Z,101860.38
2023-01-29T09:43:08.293Z,101865.69
2023-01-29T09:45:37.280Z,101861.16
2023-01-29T09:48:11.682Z,101859.41
2023-01-29T09:50:42.061Z,101860.31
2023-01-29T09:53:18.265Z,101866.56
2023-01-29T09:55:50.279Z,101866.56
2023-01-29T09:58:23.944Z,101857.59
2023-01-29T10:00:58.276Z,101852.25
2023-01-29T10:03:42.508Z,101846.84
2023-01-29T10:06:22.658Z,101845.94
2023-01-29T10:09:16.065Z,101838.00
2023-01-29T10:11:49.216Z,101829.09
2023-01-29T10:14:22.984Z,101834.47
2023-01-29T10:17:02.395Z,101829.06
2023-01-29T10:19:59.064Z,101830.81
2023-01-29T10:22:37.995Z,101827.25
2023-01-29T10:25:11.291Z,101819.22
2023-01-29T10:27:42.040Z,101823.63
2023-01-29T10:30:23.131Z,101807.56
2023-01-29T10:32:51.623Z,101807.56
2023-01-29T10:35:23.886Z,101799.41
2023-01-29T10:37:53.845Z,101801.16
2023-01-29T10:40:23.582Z,101794.00
2023-01-29T10:42:58.171Z,101792.22
2023-01-29T10:45:32.759Z,101777.91
2023-01-29T10:48:36.303Z,101770.75
2023-01-29T10:51:14.507Z,101774.31
2023-01-29T10:53:50.149Z,101759.03
2023-01-29T10:56:35.409Z,101754.50
2023-01-29T10:59:08.169Z,101754.50
2023-01-29T11:01:36.293Z,101743.75
2023-01-29T11:04:07.293Z,101732.13
2023-01-29T11:06:37.908Z,101741.81
2023-01-29T11:09:10.020Z,101740.78
2023-01-29T11:11:45.033Z,101732.63
2023-01-29T11:14:16.288Z,101735.16
2023-01-29T11:16:46.839Z,101736.81
2023-01-29T11:19:15.369Z,101726.81
2023-01-29T11:21:58.117Z,101716.91
2023-01-29T11:24:26.871Z,101710.56
2023-01-29T11:26:57.216Z,101702.63
2023-01-29T11:29:40.379Z,101691.88
2023-01-29T11:32:12.804Z,101687.34
2023-01-29T11:35:02.714Z,101697.06
2023-01-29T11:37:37.605Z,101688.00
2023-01-29T11:40:34.859Z,101678.81
2023-01-29T11:43:14.452Z,101666.13
2023-01-29T11:45:42.584Z,101672.22
2023-01-29T11:48:15.907Z,101682.00
2023-01-29T11:50:44.238Z,101664.13
2023-01-29T11:53:28.313Z,101650.50
2023-01-29T11:55:56.968Z,101653.00
2023-01-29T11:58:30.258Z,101650.38
2023-01-29T12:01:00.935Z,101645.19
2023-01-29T12:03:35.673Z,101649.72
2023-01-29T12:06:06.408Z,101643.50
2023-01-29T12:08:39.226Z,101637.25
2023-01-29T12:11:13.098Z,101629.34
2023-01-29T12:13:43.281Z,101619.56
2023-01-29T12:16:23.849Z,101619.72
2023-01-29T12:18:55.837Z,101622.50
2023-01-29T12:21:31.068Z,101613.69
2023-01-29T12:24:05.779Z,101615.44
2023-01-29T12:26:36.439Z,101612.72
2023-01-29T12:29:25.667Z,101599.22
2023-01-29T12:32:00.426Z,101609.94
2023-01-29T12:34:34.331Z,101600.28
2023-01-29T12:37:10.898Z,101596.75
2023-01-29T12:39:40.388Z,101596.94
2023-01-29T12:42:15.635Z,101590.84
2023-01-29T12:44:46.764Z,101581.13
2023-01-29T12:47:18.949Z,101568.66
2023-01-29T12:49:51.559Z,101572.31
2023-01-29T12:52:23.812Z,101563.38
2023-01-29T12:54:57.067Z,101569.59
2023-01-29T12:57:30.895Z,101562.44
2023-01-29T13:00:02.761Z,101559.03
2023-01-29T13:02:34.959Z,101547.50
2023-01-29T13:05:07.025Z,101550.19
2023-01-29T13:07:40.118Z,101545.78
2023-01-29T13:10:15.066Z,101557.47
2023-01-29T13:12:52.639Z,101545.94
2023-01-29T13:15:25.150Z,101538.78
2023-01-29T13:17:58.283Z,101538.84
2023-01-29T13:20:30.611Z,101537.91
2023-01-29T13:23:04.927Z,101542.56
2023-01-29T13:25:34.369Z,101533.72
2023-01-29T13:28:02.445Z,101539.03
2023-01-29T13:30:32.082Z,101519.41
2023-01-29T13:33:10.405Z,101519.56
2023-01-29T13:35:41.612Z,101521.38
2023-01-29T13:38:24.168Z,101511.50
2023-01-29T13:40:55.128Z,101507.00
2023-01-29T13:43:24.552Z,101499.97
2023-01-29T13:45:53.944Z,101500.97
2023-01-29T13:48:26.023Z,101502.72
2023-01-29T13:50:54.783Z,101492.88
2023-01-29T13:53:25.416Z,101484.00
2023-01-29T13:55:55.064Z,101487.59
2023-01-29T13:58:58.874Z,101475.09
2023-01-29T14:02:00.389Z,101485.91
2023-01-29T14:04:31.044Z,101470.78
2023-01-29T14:06:59.835Z,101467.28
2023-01-29T14:09:58.046Z,101469.09
2023-01-29T14:12:42.873Z,101463.69
2023-01-29T14:15:33.355Z,101463.75
2023-01-29T14:18:16.076Z,101454.84
2023-01-29T14:20:57.680Z,101449.50
2023-01-29T14:23:36.763Z,101445.84
2023-01-29T14:26:07.214Z,101450.22
2023-01-29T14:28:36.779Z,101441.19
2023-01-29T14:31:05.322Z,101436.63
2023-01-29T14:33:37.279Z,101424.13
2023-01-29T14:36:08.166Z,101430.34
2023-01-29T14:38:36.440Z,101425.91
2023-01-29T14:41:08.757Z,101420.44
2023-01-29T14:43:38.213Z,101422.25
2023-01-29T14:46:44.346Z,101409.00
2023-01-29T14:49:12.531Z,101403.63
2023-01-29T14:51:44.369Z,101400.09
2023-01-29T14:54:26.350Z,101403.56
2023-01-29T14:57:00.408Z,101397.41
2023-01-29T14:59:37.366Z,101392.13
2023-01-29T15:02:15.400Z,101394.81
2023-01-29T15:04:47.529Z,101385.84
2023-01-29T15:07:28.702Z,101381.28
2023-01-29T15:10:21.110Z,101382.16
2023-01-29T15:12:53.835Z,101388.50
2023-01-29T15:15:33.159Z,101374.19
2023-01-29T15:18:05.946Z,101366.16
2023-01-29T15:20:35.424Z,101369.72
2023-01-29T15:23:04.753Z,101356.28
2023-01-29T15:25:37.463Z,101341.09
2023-01-29T15:28:08.629Z,101351.81
2023-01-29T15:30:38.715Z,101335.75
2023-01-29T15:33:10.681Z,101332.13
2023-01-29T15:35:40.323Z,101333.06
2023-01-29T15:38:16.051Z,101334.00
2023-01-29T15:40:53.006Z,101335.75
2023-01-29T15:43:22.699Z,101325.03
2023-01-29T15:45:57.654Z,101329.47
2023-01-29T15:48:32.803Z,101324.06
2023-01-29T15:51:01.324Z,101325.78
2023-01-29T15:53:36.072Z,101330.19
2023-01-29T15:56:08.896Z,101320.38
2023-01-29T15:58:37.075Z,101310.59
2023-01-29T16:01:07.581Z,101309.66
2023-01-29T16:03:37.656Z,101309.66
2023-01-29T16:06:07.260Z,101301.69
2023-01-29T16:08:35.818Z,101300.69
2023-01-29T16:11:07.148Z,101309.53
2023-01-29T16:13:37.895Z,101300.53
2023-01-29T16:16:20.935Z,101303.13
2023-01-29T16:18:59.954Z,101299.53
2023-01-29T16:21:31.446Z,101301.31
2023-01-29T16:24:00.726Z,101289.81
2023-01-29T16:26:32.616Z,101285.38
2023-01-29T16:29:05.417Z,101280.97
2023-01-29T16:31:36.531Z,101275.63
2023-01-29T16:34:08.320Z,101272.00
2023-01-29T16:36:36.794Z,101272.94
2023-01-29T16:39:08.743Z,101260.50
2023-01-29T16:41:38.298Z,101259.75
2023-01-29T16:44:29.535Z,101260.69
2023-01-29T16:47:07.233Z,101245.56
2023-01-29T16:49:45.589Z,101240.41
2023-01-29T16:52:23.687Z,101239.69
2023-01-29T16:54:52.120Z,101230.00
2023-01-29T16:57:24.124Z,101231.91
2023-01-29T16:59:55.496Z,101230.28
2023-01-29T17:02:28.428Z,101232.97
2023-01-29T17:04:59.733Z,101227.69
2023-01-29T17:07:28.549Z,101219.66
2023-01-29T17:09:59.892Z,101215.25
2023-01-29T17:12:28.938Z,101212.63
2023-01-29T17:14:58.115Z,101211.66
2023-01-29T17:17:32.522Z,101197.47
2023-01-29T17:20:05.512Z,101207.28
2023-01-29T17:22:33.614Z,101202.88
2023-01-29T17:25:01.853Z,101193.09
2023-01-29T17:27:30.147Z,101194.09
2023-01-29T17:29:58.607Z,101192.34
2023-01-29T17:32:44.748Z,101187.94
2023-01-29T17:35:17.843Z,101169.28
2023-01-29T17:37:46.217Z,101161.31
2023-01-29T17:40:32.406Z,101151.50
2023-01-29T17:43:00.473Z,101137.25
2023-01-29T17:45:28.907Z,101140.94
2023-01-29T17:47:57.071Z,101141.00
2023-01-29T17:50:28.596Z,101131.28
2023-01-29T17:52:56.782Z,101127.81
2023-01-29T17:55:25.004Z,101136.75
2023-01-29T17:57:53.100Z,101130.56
2023-01-29T18:00:24.850Z,101128.88
2023-01-29T18:02:53.128Z,101116.50
2023-01-29T18:05:21.301Z,101106.78
2023-01-29T18:07:52.234Z,101119.28
2023-01-29T18:10:22.961Z,101116.69
2023-01-29T18:12:51.052Z,101098.97
2023-01-29T18:15:19.532Z,101097.19
2023-01-29T18:17:48.579Z,101098.97
2023-01-29T18:20:21.487Z,101088.19
2023-01-29T18:22:50.992Z,101083.66
2023-01-29T18:25:19.882Z,101078.31
2023-01-29T18:27:48.249Z,101076.50
2023-01-29T18:30:16.617Z,101065.00
2023-01-29T18:32:44.697Z,101057.06
2023-01-29T18:35:13.081Z,101048.25
2023-01-29T18:37:41.182Z,101039.47
2023-01-29T18:40:13.678Z,101042.22
2023-01-29T18:42:41.797Z,101034.38
2023-01-29T18:45:10.499Z,101037.09
2023-01-29T18:47:38.897Z,101024.66
2023-01-29T18:50:08.855Z,101039.06
2023-01-29T18:52:36.942Z,101025.75
2023-01-29T18:55:05.371Z,101024.91
2023-01-29T18:58:27.287Z,101020.41
2023-01-29T19:00:23.473Z,101007.00
2023-01-29T19:02:51.752Z,101000.78
2023-01-29T19:05:22.768Z,100987.34
2023-01-29T19:07:52.163Z,100982.88
2023-01-29T19:10:20.362Z,100976.59
2023-01-29T19:12:49.870Z,100965.97
2023-01-29T19:15:22.642Z,100962.38
2023-01-29T19:17:50.980Z,100965.03
2023-01-29T19:20:19.489Z,100967.72
2023-01-29T19:22:48.337Z,100968.53
2023-01-29T19:25:17.484Z,100956.91
2023-01-29T19:27:45.943Z,100948.00
2023-01-29T19:30:15.963Z,100953.38
2023-01-29T19:32:44.050Z,100946.19
2023-01-29T19:35:12.283Z,100942.50
2023-01-29T19:37:40.352Z,100933.56
2023-01-29T19:40:10.983Z,100929.09
2023-01-29T19:42:39.781Z,100920.13
2023-01-29T19:45:09.952Z,100919.25
2023-01-29T19:47:40.968Z,100909.38
2023-01-29T19:50:10.246Z,100913.78
2023-01-29T19:52:50.715Z,100917.28
2023-01-29T19:55:20.676Z,100917.19
2023-01-29T19:57:49.028Z,100901.88
2023-01-29T20:00:18.372Z,100900.06
2023-01-29T20:02:47.913Z,100907.97
2023-01-29T20:05:18.415Z,100908.84
2023-01-29T20:07:46.950Z,100889.31
2023-01-29T20:10:17.366Z,100886.56
2023-01-29T20:12:46.565Z,100881.22
2023-01-29T20:15:15.375Z,100867.94
2023-01-29T20:17:43.596Z,100873.28
2023-01-29T20:20:13.777Z,100868.78
2023-01-29T20:22:41.985Z,100868.78
2023-01-29T20:25:13.549Z,100875.94
2023-01-29T20:27:41.870Z,100871.47
2023-01-29T20:30:11.759Z,100866.94
2023-01-29T20:32:39.835Z,100850.88
2023-01-29T20:35:09.347Z,100858.97
2023-01-29T20:37:38.871Z,100843.81
2023-01-29T20:40:07.824Z,100842.94
2023-01-29T20:42:35.902Z,100833.97
2023-01-29T20:45:04.211Z,100830.44
2023-01-29T20:47:32.313Z,100818.81
2023-01-29T20:50:04.421Z,100817.78
2023-01-29T20:52:32.505Z,100819.53
2023-01-29T20:55:02.108Z,100830.31
2023-01-29T20:57:30.456Z,100811.66
2023-01-29T20:59:58.582Z,100796.47
2023-01-29T21:02:26.702Z,100803.69
2023-01-29T21:04:54.981Z,100815.31
2023-01-29T21:07:23.263Z,100798.41
2023-01-29T21:09:51.333Z,100794.06
2023-01-29T21:12:20.858Z,100781.56
2023-01-29T21:14:48.921Z,100772.63
2023-01-29T21:17:17.032Z,100775.28
2023-01-29T21:19:45.112Z,100763.72
2023-01-29T21:22:13.259Z,100744.09
2023-01-29T21:24:41.365Z,100766.28
2023-01-29T21:27:09.456Z,100744.75
2023-01-29T21:29:38.972Z,100748.19
2023-01-29T21:32:09.117Z,100735.53
2023-01-29T21:34:37.212Z,100720.16
2023-01-29T21:37:05.319Z,100734.31
2023-01-29T21:39:33.410Z,100727.13
2023-01-29T21:42:18.845Z,100694.81
2023-01-29T21:44:48.334Z,100695.47
2023-01-29T21:47:16.464Z,100671.28
2023-01-29T21:49:45.486Z,100667.69
2023-01-29T21:52:15.187Z,100679.16
2023-01-29T21:54:48.951Z,100663.06
2023-01-29T21:57:17.829Z,100656.63
2023-01-29T21:59:46.971Z,100674.41
2023-01-29T22:02:22.347Z,100671.59
2023-01-29T22:04:52.294Z,100672.41
2023-01-29T22:07:20.437Z,100671.34
2023-01-29T22:09:48.649Z,100661.44
2023-01-29T22:12:16.847Z,100665.84
2023-01-29T22:14:44.932Z,100672.06
2023-01-29T22:17:13.429Z,100653.25
2023-01-29T22:19:43.042Z,100640.63
2023-01-29T22:22:14.538Z,100631.84
2023-01-29T22:24:44.737Z,100638.09
2023-01-29T22:27:13.240Z,100614.88
2023-01-29T22:29:41.485Z,100602.31
2023-01-29T22:32:11.210Z,100593.34
2023-01-29T22:34:39.328Z,100588.84
2023-01-29T22:37:08.859Z,100587.97
2023-01-29T22:39:36.948Z,100569.25
2023-01-29T22:42:05.244Z,100575.47
2023-01-29T22:44:33.348Z,100550.59
2023-01-29T22:47:01.904Z,100571.94
2023-01-29T22:49:31.486Z,100558.53
2023-01-29T22:52:11.269Z,100563.81
2023-01-29T22:54:42.278Z,100550.44
2023-01-29T22:57:11.279Z,100536.19
2023-01-29T22:59:39.702Z,100534.47
2023-01-29T23:02:08.682Z,100528.16
2023-01-29T23:04:36.813Z,100517.53
2023-01-29T23:07:05.144Z,100512.28
2023-01-29T23:09:33.266Z,100502.50
2023-01-29T23:12:02.743Z,100505.19
2023-01-29T23:14:30.843Z,100490.03
2023-01-29T23:16:58.913Z,100497.16
2023-01-29T23:19:27.125Z,100488.31
2023-01-29T23:21:55.180Z,100481.22
2023-01-29T23:24:23.566Z,100468.81
2023-01-29T23:27:09.252Z,100477.69
2023-01-29T23:29:38.714Z,100482.91
2023-01-29T23:32:07.115Z,100462.38
2023-01-29T23:34:35.217Z,100473.09
2023-01-29T23:37:03.304Z,100450.72
2023-01-29T23:39:31.431Z,100443.66
2023-01-29T23:41:59.545Z,100418.63
2023-01-29T23:44:27.635Z,100424.75
2023-01-29T23:46:57.325Z,100432.72
2023-01-29T23:49:25.474Z,100420.19
2023-01-29T23:51:53.595Z,100427.34
2023-01-29T23:54:21.705Z,100402.25
2023-01-29T23:56:49.843Z,100390.59
2023-01-29T23:59:18.022Z,100378.84
